createdAt,value
2018-05-04T00:09:16.399Z,30.4
2018-05-04T00:19:15.617Z,30.4
2018-05-04T00:29:14.827Z,30.4
2018-05-04T00:39:14.085Z,30.5
2018-05-04T00:49:13.300Z,30.5
2018-05-04T00:59:12.505Z,30.6
2018-05-04T01:09:11.712Z,30.6
2018-05-04T01:19:10.922Z,30.6
2018-05-04T01:29:10.230Z,30.6
2018-05-04T01:39:09.360Z,30.7
2018-05-04T01:49:08.637Z,30.7
2018-05-04T01:59:07.815Z,30.8
2018-05-04T02:09:07.016Z,30.8
2018-05-04T02:19:06.325Z,30.8
2018-05-04T02:29:05.462Z,30.8
2018-05-04T02:39:04.671Z,30.2
2018-05-04T02:49:04.069Z,27.3
2018-05-04T02:59:03.125Z,27.1
2018-05-04T03:09:02.372Z,27.2
2018-05-04T03:19:01.701Z,27.2
2018-05-04T03:29:00.818Z,27.1
2018-05-04T03:39:00.010Z,26.9
2018-05-04T03:48:59.208Z,26
2018-05-04T03:58:58.451Z,25.4
2018-05-04T04:08:57.648Z,25.4
2018-05-04T04:18:56.881Z,25.6
2018-05-04T04:28:56.094Z,25.6
2018-05-04T04:38:55.465Z,25.8
2018-05-04T04:48:54.530Z,25.8
2018-05-04T04:58:53.792Z,25.9
2018-05-04T05:08:52.976Z,26.1
2018-05-04T05:18:52.197Z,26.4
2018-05-04T05:28:51.405Z,26.6
2018-05-04T05:38:50.786Z,26.9
2018-05-04T05:48:49.843Z,27.3
2018-05-04T05:58:49.153Z,27.8
2018-05-04T06:08:48.291Z,28.3
2018-05-04T06:18:47.541Z,28.8
2018-05-04T06:28:46.760Z,29.3
2018-05-04T06:38:45.940Z,29.8
2018-05-04T06:48:45.225Z,30.5
2018-05-04T06:58:44.380Z,31.3
2018-05-04T07:08:43.608Z,32
2018-05-04T07:18:42.818Z,32.3
2018-05-04T07:28:42.090Z,33.1
2018-05-04T07:38:41.334Z,33.6
2018-05-04T07:48:40.588Z,34.1
2018-05-04T07:58:39.740Z,34.7
2018-05-04T08:08:39.015Z,35.3
2018-05-04T08:18:38.303Z,35.7
2018-05-04T08:28:38.845Z,36.1
2018-05-04T08:38:36.604Z,36.6
2018-05-04T08:48:35.810Z,37
2018-05-04T08:58:35.049Z,37.4
2018-05-04T09:08:34.250Z,37.7
2018-05-04T09:18:33.502Z,38.2
2018-05-04T09:28:32.705Z,38.8
2018-05-04T09:38:31.975Z,39.5
2018-05-04T09:48:31.145Z,40.1
2018-05-04T09:58:30.357Z,40.6
2018-05-04T10:08:29.573Z,41.1
2018-05-04T10:18:28.853Z,41.5
2018-05-04T10:28:28.101Z,42.1
2018-05-04T10:38:27.353Z,42.6
2018-05-04T10:48:26.510Z,43.1
2018-05-04T10:58:25.734Z,43.6
2018-05-04T11:08:24.960Z,43.9
2018-05-04T11:18:24.182Z,44.3
2018-05-04T11:28:23.347Z,44.6
2018-05-04T11:38:22.557Z,44.9
2018-05-04T11:48:21.777Z,45.3
2018-05-04T11:58:21.029Z,45.8
2018-05-04T12:08:20.280Z,46.4
2018-05-04T12:18:19.488Z,46.9
2018-05-04T12:28:18.762Z,47.3
2018-05-04T12:38:17.932Z,47.6
2018-05-04T12:48:17.235Z,47.8
2018-05-04T12:58:16.416Z,47.9
2018-05-04T13:08:15.616Z,48.1
2018-05-04T13:18:14.865Z,48.3
2018-05-04T13:28:14.050Z,48.5
2018-05-04T13:38:13.293Z,48.7
2018-05-04T13:48:12.509Z,48.8
2018-05-04T13:58:11.739Z,48.9
2018-05-04T14:08:10.924Z,48.9
2018-05-04T14:18:10.140Z,48.9
2018-05-04T14:28:09.360Z,48.9
2018-05-04T14:38:08.576Z,48.8
2018-05-04T14:48:07.835Z,48.6
2018-05-04T14:58:07.088Z,48.4
2018-05-04T15:08:06.270Z,48.3
2018-05-04T15:18:05.481Z,47.9
2018-05-04T15:28:04.704Z,47.1
2018-05-04T15:38:03.945Z,45.2
2018-05-04T15:48:03.129Z,44.4
2018-05-04T15:58:02.369Z,43.9
2018-05-04T16:08:01.577Z,43.8
2018-05-04T16:18:00.812Z,43.7
2018-05-04T16:28:00.076Z,43.6
2018-05-04T16:37:59.292Z,43.5
2018-05-04T16:47:58.509Z,43.4
2018-05-04T16:57:57.751Z,42.3
2018-05-04T17:07:56.929Z,42
2018-05-04T17:17:56.146Z,42
2018-05-04T17:27:55.423Z,41.3
2018-05-04T17:37:54.597Z,41.2
2018-05-04T17:47:53.847Z,41.2
2018-05-04T17:57:53.042Z,39.9
2018-05-04T18:07:52.357Z,39.6
2018-05-04T18:17:51.557Z,39.4
2018-05-04T18:27:50.726Z,36.9
2018-05-04T18:37:50.016Z,33.1
2018-05-04T18:47:49.162Z,32.9
2018-05-04T18:57:48.381Z,32.8
2018-05-04T19:07:47.656Z,33.1
2018-05-04T19:17:46.833Z,33.1
2018-05-04T19:27:46.044Z,31.9
2018-05-04T19:37:45.307Z,32.4
2018-05-04T19:47:44.530Z,32.2
2018-05-04T19:57:43.723Z,32.4
2018-05-04T20:07:42.995Z,32.4
2018-05-04T20:17:42.234Z,32.4
2018-05-04T20:27:41.403Z,32.5
2018-05-04T20:37:40.735Z,32.6
2018-05-04T20:47:39.882Z,32.6
2018-05-04T20:57:39.108Z,32.6
2018-05-04T21:07:38.360Z,32.7
2018-05-04T21:17:37.497Z,32.7
2018-05-04T21:27:36.717Z,32.7
2018-05-04T21:37:35.939Z,32.8
2018-05-04T21:47:35.151Z,32.8
2018-05-04T21:57:34.444Z,32.8
2018-05-04T22:07:33.637Z,32.8
2018-05-04T22:17:32.869Z,32.9
2018-05-04T22:27:32.073Z,32.9
2018-05-04T22:37:31.284Z,32.9
2018-05-04T22:47:30.534Z,32.9
2018-05-04T22:57:29.724Z,32.9
2018-05-04T23:07:29.157Z,32.8
2018-05-04T23:17:28.242Z,32.9
2018-05-04T23:27:27.441Z,32.9
2018-05-04T23:37:26.697Z,32.9
2018-05-04T23:47:25.873Z,32.9
2018-05-04T23:57:25.056Z,32.9
